createdAt,value
2023-03-31T00:00:58.253Z,13.63
2023-03-31T00:06:02.093Z,11.80
2023-03-31T00:11:08.462Z,11.98
2023-03-31T00:16:11.659Z,9.25
2023-03-31T00:21:24.767Z,8.43
2023-03-31T00:26:29.662Z,12.32
2023-03-31T00:31:32.424Z,9.98
2023-03-31T00:36:36.793Z,7.33
2023-03-31T00:41:41.825Z,7.05
2023-03-31T00:46:52.287Z,12.80
2023-03-31T00:51:56.867Z,11.05
2023-03-31T00:57:03.609Z,9.02
2023-03-31T01:02:06.766Z,8.27
2023-03-31T01:07:16.935Z,8.02
2023-03-31T01:12:23.174Z,11.27
2023-03-31T01:17:29.942Z,11.55
2023-03-31T01:22:51.509Z,8.32
2023-03-31T01:28:15.701Z,11.27
2023-03-31T01:33:40.260Z,6.97
2023-03-31T01:39:05.084Z,10.75
2023-03-31T01:44:18.698Z,8.85
2023-03-31T01:49:30.158Z,7.70
2023-03-31T01:54:39.329Z,8.60
2023-03-31T01:59:52.170Z,10.02
2023-03-31T02:05:01.610Z,8.85
2023-03-31T02:10:08.685Z,9.68
2023-03-31T02:15:18.325Z,10.68
2023-03-31T02:20:22.994Z,9.90
2023-03-31T02:25:30.594Z,9.90
2023-03-31T02:30:44.471Z,11.15
2023-03-31T02:40:49.970Z,10.88
2023-03-31T02:45:53.883Z,9.35
2023-03-31T02:51:17.578Z,6.78
2023-03-31T02:56:31.994Z,10.00
2023-03-31T03:02:01.972Z,6.65
2023-03-31T03:07:10.009Z,9.20
2023-03-31T03:12:18.881Z,9.60
2023-03-31T03:17:27.817Z,6.15
2023-03-31T03:22:30.469Z,7.82
2023-03-31T03:27:33.232Z,7.83
2023-03-31T03:32:37.309Z,11.13
2023-03-31T03:37:40.379Z,11.68
2023-03-31T03:42:43.157Z,8.77
2023-03-31T03:47:47.140Z,14.43
2023-03-31T03:52:49.782Z,10.88
2023-03-31T03:57:52.370Z,15.87
2023-03-31T04:02:56.387Z,11.87
2023-03-31T04:07:59.955Z,12.60
2023-03-31T04:13:02.981Z,13.10
2023-03-31T04:18:07.066Z,13.55
2023-03-31T04:23:10.321Z,12.45
2023-03-31T04:28:14.686Z,12.77
2023-03-31T04:33:19.021Z,11.35
2023-03-31T04:38:23.615Z,12.68
2023-03-31T04:43:26.563Z,13.52
2023-03-31T04:48:30.514Z,10.20
2023-03-31T04:53:33.675Z,9.75
2023-03-31T04:58:36.263Z,10.02
2023-03-31T05:03:41.364Z,13.73
2023-03-31T05:08:44.872Z,19.00
2023-03-31T05:13:47.697Z,18.10
2023-03-31T05:18:51.688Z,8.68
2023-03-31T05:23:54.746Z,8.05
2023-03-31T05:28:58.279Z,14.13
2023-03-31T05:34:02.261Z,11.07
2023-03-31T05:39:04.958Z,16.00
2023-03-31T05:44:07.535Z,11.63
2023-03-31T05:49:11.931Z,9.40
2023-03-31T05:54:14.874Z,15.77
2023-03-31T05:59:17.472Z,14.43
2023-03-31T06:04:21.690Z,16.57
2023-03-31T06:09:24.380Z,11.35
2023-03-31T06:14:28.273Z,10.87
2023-03-31T06:19:32.456Z,7.50
2023-03-31T06:24:35.042Z,8.50
2023-03-31T06:29:38.556Z,12.67
2023-03-31T06:39:45.639Z,13.47
2023-03-31T06:44:48.176Z,12.00
2023-03-31T06:49:52.096Z,11.53
2023-03-31T06:54:54.664Z,16.48
2023-03-31T06:59:57.185Z,9.57
2023-03-31T07:05:01.151Z,11.03
2023-03-31T07:10:03.871Z,12.63
2023-03-31T07:15:07.864Z,11.95
2023-03-31T07:20:15.074Z,6.72
2023-03-31T07:25:18.834Z,10.23
2023-03-31T07:30:22.313Z,4.88
2023-03-31T07:35:27.349Z,5.13
2023-03-31T07:40:34.114Z,3.92
2023-03-31T07:45:37.159Z,3.70
2023-03-31T07:50:41.220Z,5.60
2023-03-31T07:55:43.767Z,5.40
2023-03-31T08:00:46.336Z,6.70
2023-03-31T08:05:52.508Z,5.23
2023-03-31T08:10:55.244Z,6.75
2023-03-31T08:15:58.908Z,5.60
2023-03-31T08:21:02.893Z,3.45
2023-03-31T08:26:16.452Z,8.20
2023-03-31T08:31:25.991Z,5.90
2023-03-31T08:36:31.235Z,7.53
2023-03-31T08:41:42.779Z,4.85
2023-03-31T08:46:45.669Z,4.43
2023-03-31T08:51:53.114Z,4.95
2023-03-31T08:56:55.842Z,4.35
2023-03-31T09:02:06.017Z,6.25
2023-03-31T09:07:17.342Z,8.63
2023-03-31T09:12:24.380Z,4.43
2023-03-31T09:17:30.374Z,5.53
2023-03-31T09:22:42.457Z,4.60
2023-03-31T09:27:47.673Z,4.80
2023-03-31T09:32:55.919Z,7.18
2023-03-31T09:38:00.628Z,20.13
2023-03-31T09:43:06.287Z,12.80
2023-03-31T09:48:15.299Z,7.78
2023-03-31T09:53:23.019Z,8.90
2023-03-31T09:58:26.203Z,10.57
2023-03-31T10:03:29.549Z,6.57
2023-03-31T10:13:44.869Z,11.35
2023-03-31T10:18:47.518Z,7.95
2023-03-31T10:23:52.196Z,8.05
2023-03-31T10:28:55.861Z,13.52
2023-03-31T10:33:59.791Z,11.55
2023-03-31T10:39:08.301Z,9.75
2023-03-31T10:44:34.035Z,12.73
2023-03-31T10:49:40.789Z,7.30
2023-03-31T10:54:49.965Z,10.15
2023-03-31T11:00:05.717Z,14.10
2023-03-31T11:05:16.452Z,12.45
2023-03-31T11:10:38.277Z,12.18
2023-03-31T11:15:48.151Z,7.25
2023-03-31T11:20:59.060Z,8.63
2023-03-31T11:26:07.093Z,11.88
2023-03-31T11:31:28.618Z,7.30
2023-03-31T11:36:44.529Z,10.27
2023-03-31T11:41:52.232Z,9.40
2023-03-31T11:47:00.016Z,7.32
2023-03-31T11:52:07.366Z,10.30
2023-03-31T11:57:21.385Z,4.85
2023-03-31T12:02:32.501Z,10.95
2023-03-31T12:07:40.828Z,10.25
2023-03-31T12:12:48.394Z,8.93
2023-03-31T12:18:00.638Z,5.63
2023-03-31T12:23:07.376Z,8.40
2023-03-31T12:34:43.321Z,3.72
2023-03-31T12:39:56.839Z,6.97
2023-03-31T12:45:05.952Z,5.72
2023-03-31T12:50:30.611Z,5.85
2023-03-31T12:55:38.741Z,5.68
2023-03-31T13:01:05.331Z,7.97
2023-03-31T13:06:12.860Z,4.32
2023-03-31T13:11:15.519Z,6.80
2023-03-31T13:16:21.391Z,5.63
2023-03-31T13:21:25.912Z,4.57
2023-03-31T13:26:47.135Z,7.75
2023-03-31T13:32:19.133Z,7.05
2023-03-31T13:37:38.507Z,8.85
2023-03-31T13:43:10.032Z,6.97
2023-03-31T13:48:27.320Z,8.15
2023-03-31T13:53:48.327Z,6.05
2023-03-31T13:59:30.383Z,6.63
2023-03-31T14:04:58.450Z,9.93
2023-03-31T14:10:04.401Z,7.40
2023-03-31T14:15:08.457Z,6.55
2023-03-31T14:20:29.805Z,10.32
2023-03-31T14:25:45.464Z,6.20
2023-03-31T14:30:54.497Z,5.40
2023-03-31T14:36:02.640Z,6.85
2023-03-31T14:41:06.744Z,7.97
2023-03-31T14:46:10.789Z,7.45
2023-03-31T14:51:15.826Z,9.95
2023-03-31T14:56:26.388Z,4.57
2023-03-31T15:01:35.684Z,6.10
2023-03-31T15:06:39.977Z,5.60
2023-03-31T15:11:43.985Z,5.32
2023-03-31T15:16:47.013Z,6.53
2023-03-31T15:21:56.610Z,5.65
2023-03-31T15:27:04.966Z,8.65
2023-03-31T15:32:13.573Z,5.65
2023-03-31T15:37:16.392Z,6.18
2023-03-31T15:42:20.530Z,4.65
2023-03-31T15:47:25.440Z,6.50
2023-03-31T15:52:33.190Z,6.00
2023-03-31T15:57:37.349Z,3.25
2023-03-31T16:02:43.488Z,4.10
2023-03-31T16:07:47.117Z,8.07
2023-03-31T16:12:55.353Z,3.28
2023-03-31T16:18:00.775Z,5.53
2023-03-31T16:23:12.030Z,5.85
2023-03-31T16:28:19.495Z,10.85
2023-03-31T16:33:24.639Z,5.95
2023-03-31T16:38:30.445Z,4.57
2023-03-31T16:43:35.093Z,4.10
2023-03-31T16:48:37.752Z,2.60
2023-03-31T16:53:40.346Z,3.30
2023-03-31T16:58:50.666Z,4.00
2023-03-31T17:03:53.389Z,2.17
2023-03-31T17:08:56.145Z,5.03
2023-03-31T17:14:00.226Z,6.88
2023-03-31T17:19:02.836Z,1.70
2023-03-31T17:24:09.524Z,2.97
2023-03-31T17:29:15.384Z,2.13
2023-03-31T17:34:18.963Z,7.72
2023-03-31T17:39:21.585Z,2.17
2023-03-31T17:44:25.657Z,1.30
2023-03-31T17:49:28.723Z,4.90
2023-03-31T17:54:32.385Z,3.38
2023-03-31T17:59:38.455Z,2.92
2023-03-31T18:04:41.867Z,1.58
2023-03-31T18:09:44.498Z,3.63
2023-03-31T18:14:49.543Z,4.03
2023-03-31T18:19:52.138Z,5.35
2023-03-31T18:25:03.955Z,5.50
2023-03-31T18:30:09.516Z,3.72
2023-03-31T18:35:12.248Z,4.97
2023-03-31T18:40:15.465Z,4.33
2023-03-31T18:45:20.582Z,4.15
2023-03-31T18:50:23.858Z,3.85
2023-03-31T18:55:29.230Z,4.22
2023-03-31T19:00:37.117Z,4.80
2023-03-31T19:05:39.957Z,4.70
2023-03-31T19:10:42.695Z,3.57
2023-03-31T19:15:46.993Z,5.83
2023-03-31T19:20:51.938Z,9.30
2023-03-31T19:25:55.270Z,5.72
2023-03-31T19:36:02.125Z,7.55
2023-03-31T19:41:06.018Z,6.83
2023-03-31T19:46:10.063Z,7.40
2023-03-31T19:51:12.827Z,7.20
2023-03-31T19:56:17.309Z,4.77
2023-03-31T20:01:23.729Z,9.57
2023-03-31T20:06:28.558Z,7.20
2023-03-31T20:11:32.072Z,7.95
2023-03-31T20:16:38.411Z,11.25
2023-03-31T20:21:42.711Z,7.78
2023-03-31T20:26:45.637Z,9.50
2023-03-31T20:31:50.399Z,5.57
2023-03-31T20:36:53.082Z,10.13
2023-03-31T20:41:55.757Z,6.20
2023-03-31T20:47:00.517Z,7.20
2023-03-31T20:52:04.454Z,6.50
2023-03-31T20:57:07.292Z,10.23
2023-03-31T21:02:14.194Z,7.03
2023-03-31T21:07:16.826Z,6.75
2023-03-31T21:12:20.290Z,6.50
2023-03-31T21:22:27.410Z,9.23
2023-03-31T21:27:30.020Z,7.22
2023-03-31T21:32:36.023Z,7.17
2023-03-31T21:37:38.627Z,6.78
2023-03-31T21:42:41.495Z,9.27
2023-03-31T21:47:46.427Z,6.38
2023-03-31T21:52:49.042Z,9.23
2023-03-31T21:57:52.972Z,8.00
2023-03-31T22:03:16.009Z,8.02
2023-03-31T22:08:19.498Z,8.23
2023-03-31T22:13:23.151Z,8.87
2023-03-31T22:18:27.125Z,6.18
2023-03-31T22:23:29.695Z,8.73
2023-03-31T22:28:32.214Z,7.57
2023-03-31T22:33:36.141Z,7.63
2023-03-31T22:38:38.882Z,7.03
2023-03-31T22:43:43.813Z,6.13
2023-03-31T22:48:50.895Z,7.25
2023-03-31T22:53:54.836Z,9.50
2023-03-31T22:58:57.960Z,6.25
2023-03-31T23:04:01.958Z,7.25
2023-03-31T23:09:04.678Z,8.80
2023-03-31T23:14:07.273Z,8.97
2023-03-31T23:19:11.996Z,9.30
2023-03-31T23:24:14.603Z,11.35
2023-03-31T23:29:17.209Z,10.10
2023-03-31T23:34:21.249Z,8.03
2023-03-31T23:39:23.866Z,5.22
2023-03-31T23:44:27.077Z,8.90
2023-03-31T23:49:32.507Z,8.93
2023-03-31T23:54:35.147Z,10.68
2023-03-31T23:59:37.979Z,10.00
